sensor_id;sensor_type;location;lat;lon;timestamp;temperature;humidity
42097;DHT22;27754;45.414;11.084;2022-08-19T00:01:35;21.90;86.70
42097;DHT22;27754;45.414;11.084;2022-08-19T00:04:06;21.90;87.10
42097;DHT22;27754;45.414;11.084;2022-08-19T00:06:34;21.90;87.80
42097;DHT22;27754;45.414;11.084;2022-08-19T00:09:04;21.90;88.00
42097;DHT22;27754;45.414;11.084;2022-08-19T00:11:31;21.90;88.00
42097;DHT22;27754;45.414;11.084;2022-08-19T00:13:58;21.90;88.10
42097;DHT22;27754;45.414;11.084;2022-08-19T00:16:25;21.90;88.10
42097;DHT22;27754;45.414;11.084;2022-08-19T00:18:54;21.80;87.40
42097;DHT22;27754;45.414;11.084;2022-08-19T00:21:23;21.80;87.30
42097;DHT22;27754;45.414;11.084;2022-08-19T00:23:51;21.80;87.20
42097;DHT22;27754;45.414;11.084;2022-08-19T00:26:18;21.60;86.90
42097;DHT22;27754;45.414;11.084;2022-08-19T00:28:46;21.60;85.90
42097;DHT22;27754;45.414;11.084;2022-08-19T00:31:13;21.60;85.20
42097;DHT22;27754;45.414;11.084;2022-08-19T00:33:40;21.70;84.80
42097;DHT22;27754;45.414;11.084;2022-08-19T00:36:08;21.70;84.80
42097;DHT22;27754;45.414;11.084;2022-08-19T00:38:37;21.60;85.20
42097;DHT22;27754;45.414;11.084;2022-08-19T00:41:06;21.60;85.80
42097;DHT22;27754;45.414;11.084;2022-08-19T00:43:33;21.60;85.20
42097;DHT22;27754;45.414;11.084;2022-08-19T00:46:00;21.70;85.00
42097;DHT22;27754;45.414;11.084;2022-08-19T00:48:33;21.70;84.50
42097;DHT22;27754;45.414;11.084;2022-08-19T00:51:01;21.80;82.00
42097;DHT22;27754;45.414;11.084;2022-08-19T00:53:30;21.90;82.20
42097;DHT22;27754;45.414;11.084;2022-08-19T00:55:59;22.00;82.50
42097;DHT22;27754;45.414;11.084;2022-08-19T00:58:32;22.00;83.10
42097;DHT22;27754;45.414;11.084;2022-08-19T01:01:02;22.10;83.10
42097;DHT22;27754;45.414;11.084;2022-08-19T01:03:29;22.10;83.70
42097;DHT22;27754;45.414;11.084;2022-08-19T01:06:16;22.10;84.90
42097;DHT22;27754;45.414;11.084;2022-08-19T01:08:46;22.00;84.80
42097;DHT22;27754;45.414;11.084;2022-08-19T01:11:16;21.80;85.60
42097;DHT22;27754;45.414;11.084;2022-08-19T01:13:44;21.70;86.00
42097;DHT22;27754;45.414;11.084;2022-08-19T01:16:18;21.70;85.30
42097;DHT22;27754;45.414;11.084;2022-08-19T01:18:45;21.80;84.50
42097;DHT22;27754;45.414;11.084;2022-08-19T01:21:45;21.80;83.60
42097;DHT22;27754;45.414;11.084;2022-08-19T01:24:14;21.80;83.80
42097;DHT22;27754;45.414;11.084;2022-08-19T01:26:43;21.60;84.30
42097;DHT22;27754;45.414;11.084;2022-08-19T01:29:12;21.40;85.60
42097;DHT22;27754;45.414;11.084;2022-08-19T01:31:40;21.30;86.90
42097;DHT22;27754;45.414;11.084;2022-08-19T01:34:07;21.30;87.90
42097;DHT22;27754;45.414;11.084;2022-08-19T01:36:45;21.20;88.40
42097;DHT22;27754;45.414;11.084;2022-08-19T01:39:22;21.10;88.70
42097;DHT22;27754;45.414;11.084;2022-08-19T01:41:50;21.10;88.90
42097;DHT22;27754;45.414;11.084;2022-08-19T01:44:20;20.90;89.10
42097;DHT22;27754;45.414;11.084;2022-08-19T01:46:51;20.90;89.00
42097;DHT22;27754;45.414;11.084;2022-08-19T01:49:19;20.90;89.10
42097;DHT22;27754;45.414;11.084;2022-08-19T01:51:47;20.90;89.60
42097;DHT22;27754;45.414;11.084;2022-08-19T01:54:16;21.00;89.30
42097;DHT22;27754;45.414;11.084;2022-08-19T01:56:58;21.00;89.20
42097;DHT22;27754;45.414;11.084;2022-08-19T01:59:26;21.00;89.20
42097;DHT22;27754;45.414;11.084;2022-08-19T02:01:53;21.00;89.50
42097;DHT22;27754;45.414;11.084;2022-08-19T02:04:20;21.10;89.70
42097;DHT22;27754;45.414;11.084;2022-08-19T02:06:47;21.00;89.40
42097;DHT22;27754;45.414;11.084;2022-08-19T02:09:14;20.90;89.30
42097;DHT22;27754;45.414;11.084;2022-08-19T02:11:42;20.90;89.40
42097;DHT22;27754;45.414;11.084;2022-08-19T02:14:09;20.90;89.70
42097;DHT22;27754;45.414;11.084;2022-08-19T02:16:37;20.90;89.60
42097;DHT22;27754;45.414;11.084;2022-08-19T02:19:04;20.90;89.70
42097;DHT22;27754;45.414;11.084;2022-08-19T02:21:32;20.90;89.40
42097;DHT22;27754;45.414;11.084;2022-08-19T02:24:00;20.90;89.40
42097;DHT22;27754;45.414;11.084;2022-08-19T02:26:27;20.90;89.60
42097;DHT22;27754;45.414;11.084;2022-08-19T02:28:55;21.00;89.50
42097;DHT22;27754;45.414;11.084;2022-08-19T02:31:24;20.90;89.40
42097;DHT22;27754;45.414;11.084;2022-08-19T02:33:52;20.90;89.30
42097;DHT22;27754;45.414;11.084;2022-08-19T02:36:23;20.80;89.60
42097;DHT22;27754;45.414;11.084;2022-08-19T02:38:51;20.80;89.70
42097;DHT22;27754;45.414;11.084;2022-08-19T02:41:28;20.80;89.70
42097;DHT22;27754;45.414;11.084;2022-08-19T02:43:58;20.80;89.50
42097;DHT22;27754;45.414;11.084;2022-08-19T02:46:48;20.80;89.20
42097;DHT22;27754;45.414;11.084;2022-08-19T02:49:18;20.80;88.80
42097;DHT22;27754;45.414;11.084;2022-08-19T02:51:46;20.80;88.00
42097;DHT22;27754;45.414;11.084;2022-08-19T02:54:14;20.80;88.00
42097;DHT22;27754;45.414;11.084;2022-08-19T02:56:42;20.80;87.80
42097;DHT22;27754;45.414;11.084;2022-08-19T02:59:10;20.80;87.60
42097;DHT22;27754;45.414;11.084;2022-08-19T03:01:40;20.80;87.90
42097;DHT22;27754;45.414;11.084;2022-08-19T03:04:12;20.80;87.90
42097;DHT22;27754;45.414;11.084;2022-08-19T03:06:41;20.80;87.90
42097;DHT22;27754;45.414;11.084;2022-08-19T03:09:09;20.80;87.90
42097;DHT22;27754;45.414;11.084;2022-08-19T03:11:37;20.80;87.50
42097;DHT22;27754;45.414;11.084;2022-08-19T03:14:06;20.80;87.60
42097;DHT22;27754;45.414;11.084;2022-08-19T03:16:44;20.80;87.60
42097;DHT22;27754;45.414;11.084;2022-08-19T03:19:11;20.80;87.80
42097;DHT22;27754;45.414;11.084;2022-08-19T03:21:38;20.80;87.90
42097;DHT22;27754;45.414;11.084;2022-08-19T03:24:07;20.80;88.00
42097;DHT22;27754;45.414;11.084;2022-08-19T03:26:39;20.80;87.90
42097;DHT22;27754;45.414;11.084;2022-08-19T03:29:07;20.80;87.50
42097;DHT22;27754;45.414;11.084;2022-08-19T03:31:38;20.80;87.10
42097;DHT22;27754;45.414;11.084;2022-08-19T03:34:24;20.70;87.20
42097;DHT22;27754;45.414;11.084;2022-08-19T03:36:58;20.70;87.00
42097;DHT22;27754;45.414;11.084;2022-08-19T03:39:26;20.60;86.80
42097;DHT22;27754;45.414;11.084;2022-08-19T03:41:54;20.80;86.10
42097;DHT22;27754;45.414;11.084;2022-08-19T03:44:49;20.90;85.70
42097;DHT22;27754;45.414;11.084;2022-08-19T03:47:16;20.80;85.30
42097;DHT22;27754;45.414;11.084;2022-08-19T03:49:44;20.80;85.60
42097;DHT22;27754;45.414;11.084;2022-08-19T03:52:11;20.70;85.90
42097;DHT22;27754;45.414;11.084;2022-08-19T03:54:39;20.60;85.80
42097;DHT22;27754;45.414;11.084;2022-08-19T03:57:06;20.70;85.80
42097;DHT22;27754;45.414;11.084;2022-08-19T03:59:35;20.60;85.90
42097;DHT22;27754;45.414;11.084;2022-08-19T04:02:07;20.70;86.10
42097;DHT22;27754;45.414;11.084;2022-08-19T04:04:37;20.70;86.30
42097;DHT22;27754;45.414;11.084;2022-08-19T04:07:05;20.70;86.20
42097;DHT22;27754;45.414;11.084;2022-08-19T04:09:34;20.70;86.20
42097;DHT22;27754;45.414;11.084;2022-08-19T04:12:01;20.70;86.10
42097;DHT22;27754;45.414;11.084;2022-08-19T04:14:29;20.80;86.10
42097;DHT22;27754;45.414;11.084;2022-08-19T04:17:01;20.70;86.20
42097;DHT22;27754;45.414;11.084;2022-08-19T04:19:29;20.80;86.20
42097;DHT22;27754;45.414;11.084;2022-08-19T04:21:57;20.90;86.60
42097;DHT22;27754;45.414;11.084;2022-08-19T04:24:24;20.90;86.90
42097;DHT22;27754;45.414;11.084;2022-08-19T04:26:52;20.90;86.90
42097;DHT22;27754;45.414;11.084;2022-08-19T04:29:22;20.90;86.80
42097;DHT22;27754;45.414;11.084;2022-08-19T04:31:53;21.00;86.90
42097;DHT22;27754;45.414;11.084;2022-08-19T04:34:22;21.00;86.70
42097;DHT22;27754;45.414;11.084;2022-08-19T04:36:52;21.00;87.10
42097;DHT22;27754;45.414;11.084;2022-08-19T04:39:22;21.00;87.30
42097;DHT22;27754;45.414;11.084;2022-08-19T04:41:49;21.00;87.50
42097;DHT22;27754;45.414;11.084;2022-08-19T04:44:35;20.90;87.30
42097;DHT22;27754;45.414;11.084;2022-08-19T04:47:11;21.00;87.30
42097;DHT22;27754;45.414;11.084;2022-08-19T04:49:38;21.00;87.30
42097;DHT22;27754;45.414;11.084;2022-08-19T04:52:05;21.00;87.20
42097;DHT22;27754;45.414;11.084;2022-08-19T04:54:32;21.10;87.00
42097;DHT22;27754;45.414;11.084;2022-08-19T04:57:07;21.20;86.40
42097;DHT22;27754;45.414;11.084;2022-08-19T04:59:37;21.20;86.50
42097;DHT22;27754;45.414;11.084;2022-08-19T05:02:04;21.30;87.00
42097;DHT22;27754;45.414;11.084;2022-08-19T05:04:31;21.40;87.10
42097;DHT22;27754;45.414;11.084;2022-08-19T05:07:00;21.40;86.30
42097;DHT22;27754;45.414;11.084;2022-08-19T05:09:29;21.50;85.70
42097;DHT22;27754;45.414;11.084;2022-08-19T05:12:17;21.70;85.30
42097;DHT22;27754;45.414;11.084;2022-08-19T05:14:45;21.70;85.20
42097;DHT22;27754;45.414;11.084;2022-08-19T05:17:14;21.60;85.60
42097;DHT22;27754;45.414;11.084;2022-08-19T05:20:04;21.60;85.70
42097;DHT22;27754;45.414;11.084;2022-08-19T05:22:49;21.50;85.90
42097;DHT22;27754;45.414;11.084;2022-08-19T05:25:19;21.50;85.80
42097;DHT22;27754;45.414;11.084;2022-08-19T05:27:47;21.50;86.40
42097;DHT22;27754;45.414;11.084;2022-08-19T05:30:14;21.60;86.30
42097;DHT22;27754;45.414;11.084;2022-08-19T05:32:42;21.80;86.10
42097;DHT22;27754;45.414;11.084;2022-08-19T05:35:09;21.80;85.30
42097;DHT22;27754;45.414;11.084;2022-08-19T05:37:37;21.80;85.00
42097;DHT22;27754;45.414;11.084;2022-08-19T05:40:08;21.80;85.30
42097;DHT22;27754;45.414;11.084;2022-08-19T05:42:35;21.90;85.40
42097;DHT22;27754;45.414;11.084;2022-08-19T05:45:03;22.00;85.30
42097;DHT22;27754;45.414;11.084;2022-08-19T05:47:31;22.00;84.70
42097;DHT22;27754;45.414;11.084;2022-08-19T05:49:58;22.00;84.80
42097;DHT22;27754;45.414;11.084;2022-08-19T05:52:25;22.10;84.90
42097;DHT22;27754;45.414;11.084;2022-08-19T05:54:54;22.00;84.90
42097;DHT22;27754;45.414;11.084;2022-08-19T05:57:23;22.00;85.20
42097;DHT22;27754;45.414;11.084;2022-08-19T05:59:51;22.00;85.40
42097;DHT22;27754;45.414;11.084;2022-08-19T06:02:28;22.10;85.60
42097;DHT22;27754;45.414;11.084;2022-08-19T06:04:57;22.10;85.90
42097;DHT22;27754;45.414;11.084;2022-08-19T06:07:24;22.00;85.90
42097;DHT22;27754;45.414;11.084;2022-08-19T06:09:51;22.10;85.60
42097;DHT22;27754;45.414;11.084;2022-08-19T06:12:30;22.00;85.70
42097;DHT22;27754;45.414;11.084;2022-08-19T06:15:06;22.00;86.00
42097;DHT22;27754;45.414;11.084;2022-08-19T06:17:34;21.90;86.30
42097;DHT22;27754;45.414;11.084;2022-08-19T06:20:07;21.90;86.40
42097;DHT22;27754;45.414;11.084;2022-08-19T06:22:39;21.80;86.80
42097;DHT22;27754;45.414;11.084;2022-08-19T06:25:07;21.80;86.90
42097;DHT22;27754;45.414;11.084;2022-08-19T06:27:35;21.80;87.20
42097;DHT22;27754;45.414;11.084;2022-08-19T06:30:14;21.70;87.70
42097;DHT22;27754;45.414;11.084;2022-08-19T06:32:41;21.60;87.80
42097;DHT22;27754;45.414;11.084;2022-08-19T06:35:09;21.60;87.90
42097;DHT22;27754;45.414;11.084;2022-08-19T06:37:37;21.60;87.90
42097;DHT22;27754;45.414;11.084;2022-08-19T06:40:09;21.50;88.00
42097;DHT22;27754;45.414;11.084;2022-08-19T06:42:38;21.50;88.30
42097;DHT22;27754;45.414;11.084;2022-08-19T06:45:10;21.40;88.20
42097;DHT22;27754;45.414;11.084;2022-08-19T06:47:37;21.40;88.50
42097;DHT22;27754;45.414;11.084;2022-08-19T06:50:04;21.40;88.50
42097;DHT22;27754;45.414;11.084;2022-08-19T06:52:35;21.40;88.50
42097;DHT22;27754;45.414;11.084;2022-08-19T06:55:04;21.40;88.60
42097;DHT22;27754;45.414;11.084;2022-08-19T06:57:33;21.30;88.70
42097;DHT22;27754;45.414;11.084;2022-08-19T07:00:00;21.30;88.90
42097;DHT22;27754;45.414;11.084;2022-08-19T07:02:27;21.30;88.90
42097;DHT22;27754;45.414;11.084;2022-08-19T07:04:54;21.20;88.90
42097;DHT22;27754;45.414;11.084;2022-08-19T07:07:24;21.20;89.50
42097;DHT22;27754;45.414;11.084;2022-08-19T07:09:52;21.10;89.70
42097;DHT22;27754;45.414;11.084;2022-08-19T07:12:31;21.10;90.10
42097;DHT22;27754;45.414;11.084;2022-08-19T07:15:04;21.10;90.20
42097;DHT22;27754;45.414;11.084;2022-08-19T07:17:31;21.10;90.30
42097;DHT22;27754;45.414;11.084;2022-08-19T07:20:01;21.10;90.40
42097;DHT22;27754;45.414;11.084;2022-08-19T07:22:35;21.10;90.50
42097;DHT22;27754;45.414;11.084;2022-08-19T07:25:02;21.10;90.60
42097;DHT22;27754;45.414;11.084;2022-08-19T07:27:30;21.00;90.80
42097;DHT22;27754;45.414;11.084;2022-08-19T07:29:59;21.00;91.20
42097;DHT22;27754;45.414;11.084;2022-08-19T07:32:27;21.00;90.90
42097;DHT22;27754;45.414;11.084;2022-08-19T07:34:54;21.00;91.10
42097;DHT22;27754;45.414;11.084;2022-08-19T07:37:23;20.90;91.10
42097;DHT22;27754;45.414;11.084;2022-08-19T07:39:52;21.00;91.10
42097;DHT22;27754;45.414;11.084;2022-08-19T07:42:19;21.00;90.90
42097;DHT22;27754;45.414;11.084;2022-08-19T07:44:47;21.00;90.80
42097;DHT22;27754;45.414;11.084;2022-08-19T07:47:17;20.90;90.80
42097;DHT22;27754;45.414;11.084;2022-08-19T07:50:08;20.90;91.00
42097;DHT22;27754;45.414;11.084;2022-08-19T07:52:36;20.90;91.40
42097;DHT22;27754;45.414;11.084;2022-08-19T07:55:08;20.80;91.60
42097;DHT22;27754;45.414;11.084;2022-08-19T07:57:55;20.80;91.70
42097;DHT22;27754;45.414;11.084;2022-08-19T08:00:22;20.90;91.80
42097;DHT22;27754;45.414;11.084;2022-08-19T08:02:51;20.90;91.70
42097;DHT22;27754;45.414;11.084;2022-08-19T08:05:22;20.90;91.70
42097;DHT22;27754;45.414;11.084;2022-08-19T08:08:11;20.80;91.70
42097;DHT22;27754;45.414;11.084;2022-08-19T08:10:58;20.80;91.70
42097;DHT22;27754;45.414;11.084;2022-08-19T08:13:25;20.80;92.20
42097;DHT22;27754;45.414;11.084;2022-08-19T08:15:53;20.80;92.50
42097;DHT22;27754;45.414;11.084;2022-08-19T08:18:23;20.80;92.80
42097;DHT22;27754;45.414;11.084;2022-08-19T08:20:57;20.70;93.00
42097;DHT22;27754;45.414;11.084;2022-08-19T08:23:25;20.70;93.30
42097;DHT22;27754;45.414;11.084;2022-08-19T08:25:55;20.70;93.30
42097;DHT22;27754;45.414;11.084;2022-08-19T08:28:24;20.70;93.10
42097;DHT22;27754;45.414;11.084;2022-08-19T08:30:54;20.60;93.30
42097;DHT22;27754;45.414;11.084;2022-08-19T08:33:24;20.70;93.40
42097;DHT22;27754;45.414;11.084;2022-08-19T08:36:07;20.60;93.50
42097;DHT22;27754;45.414;11.084;2022-08-19T08:38:35;20.70;93.70
42097;DHT22;27754;45.414;11.084;2022-08-19T08:41:23;20.70;93.80
42097;DHT22;27754;45.414;11.084;2022-08-19T08:43:55;20.70;93.80
42097;DHT22;27754;45.414;11.084;2022-08-19T08:46:57;20.80;93.90
42097;DHT22;27754;45.414;11.084;2022-08-19T08:49:51;20.80;93.90
42097;DHT22;27754;45.414;11.084;2022-08-19T08:52:26;20.80;94.00
42097;DHT22;27754;45.414;11.084;2022-08-19T08:55:03;20.80;93.90
42097;DHT22;27754;45.414;11.084;2022-08-19T09:00:25;20.70;93.70
42097;DHT22;27754;45.414;11.084;2022-08-19T09:02:57;20.60;93.30
42097;DHT22;27754;45.414;11.084;2022-08-19T09:10:56;20.30;93.40
42097;DHT22;27754;45.414;11.084;2022-08-19T09:16:04;20.20;93.50
42097;DHT22;27754;45.414;11.084;2022-08-19T09:18:45;20.20;93.50
42097;DHT22;27754;45.414;11.084;2022-08-19T09:21:15;20.30;93.50
42097;DHT22;27754;45.414;11.084;2022-08-19T09:23:43;20.30;93.50
42097;DHT22;27754;45.414;11.084;2022-08-19T09:26:14;20.30;93.30
42097;DHT22;27754;45.414;11.084;2022-08-19T09:28:44;20.30;93.10
42097;DHT22;27754;45.414;11.084;2022-08-19T09:31:17;20.40;93.20
42097;DHT22;27754;45.414;11.084;2022-08-19T09:33:45;20.40;92.70
42097;DHT22;27754;45.414;11.084;2022-08-19T09:36:15;20.50;92.50
42097;DHT22;27754;45.414;11.084;2022-08-19T09:39:00;20.50;92.50
42097;DHT22;27754;45.414;11.084;2022-08-19T09:41:28;20.60;92.20
42097;DHT22;27754;45.414;11.084;2022-08-19T09:43:56;20.60;92.20
42097;DHT22;27754;45.414;11.084;2022-08-19T09:46:26;20.80;91.70
42097;DHT22;27754;45.414;11.084;2022-08-19T09:48:58;20.80;91.40
42097;DHT22;27754;45.414;11.084;2022-08-19T09:51:33;20.80;91.40
42097;DHT22;27754;45.414;11.084;2022-08-19T09:54:02;20.90;91.10
42097;DHT22;27754;45.414;11.084;2022-08-19T09:56:31;20.90;91.00
42097;DHT22;27754;45.414;11.084;2022-08-19T09:59:00;20.90;91.00
42097;DHT22;27754;45.414;11.084;2022-08-19T10:01:30;21.00;91.10
42097;DHT22;27754;45.414;11.084;2022-08-19T10:03:59;21.00;91.00
42097;DHT22;27754;45.414;11.084;2022-08-19T10:06:27;21.10;90.80
42097;DHT22;27754;45.414;11.084;2022-08-19T10:09:13;21.10;90.60
42097;DHT22;27754;45.414;11.084;2022-08-19T10:11:42;21.00;90.80
42097;DHT22;27754;45.414;11.084;2022-08-19T10:14:19;21.10;90.60
42097;DHT22;27754;45.414;11.084;2022-08-19T10:16:49;21.20;90.90
42097;DHT22;27754;45.414;11.084;2022-08-19T10:19:17;21.30;90.60
42097;DHT22;27754;45.414;11.084;2022-08-19T10:21:53;21.40;90.60
42097;DHT22;27754;45.414;11.084;2022-08-19T10:24:21;21.40;90.40
42097;DHT22;27754;45.414;11.084;2022-08-19T10:26:50;21.50;90.30
42097;DHT22;27754;45.414;11.084;2022-08-19T10:29:24;21.70;90.20
42097;DHT22;27754;45.414;11.084;2022-08-19T10:32:04;21.70;90.10
42097;DHT22;27754;45.414;11.084;2022-08-19T10:34:38;21.70;89.80
42097;DHT22;27754;45.414;11.084;2022-08-19T10:37:16;21.70;90.00
42097;DHT22;27754;45.414;11.084;2022-08-19T10:39:57;21.90;89.90
42097;DHT22;27754;45.414;11.084;2022-08-19T10:42:24;22.00;89.40
42097;DHT22;27754;45.414;11.084;2022-08-19T10:44:51;22.20;89.10
42097;DHT22;27754;45.414;11.084;2022-08-19T10:47:18;22.10;88.50
42097;DHT22;27754;45.414;11.084;2022-08-19T10:49:55;22.40;88.70
42097;DHT22;27754;45.414;11.084;2022-08-19T10:52:44;22.50;88.60
42097;DHT22;27754;45.414;11.084;2022-08-19T10:55:23;22.70;88.40
42097;DHT22;27754;45.414;11.084;2022-08-19T10:58:19;22.80;87.10
42097;DHT22;27754;45.414;11.084;2022-08-19T11:00:57;22.90;86.70
42097;DHT22;27754;45.414;11.084;2022-08-19T11:03:26;23.10;86.90
42097;DHT22;27754;45.414;11.084;2022-08-19T11:05:59;23.20;86.20
42097;DHT22;27754;45.414;11.084;2022-08-19T11:08:27;23.20;86.20
42097;DHT22;27754;45.414;11.084;2022-08-19T11:10:54;23.60;85.10
42097;DHT22;27754;45.414;11.084;2022-08-19T11:13:28;23.70;85.70
42097;DHT22;27754;45.414;11.084;2022-08-19T11:16:03;23.70;85.20
42097;DHT22;27754;45.414;11.084;2022-08-19T11:18:49;23.80;84.50
42097;DHT22;27754;45.414;11.084;2022-08-19T11:21:23;23.90;84.90
42097;DHT22;27754;45.414;11.084;2022-08-19T11:23:55;23.80;83.80
42097;DHT22;27754;45.414;11.084;2022-08-19T11:26:23;23.80;84.10
42097;DHT22;27754;45.414;11.084;2022-08-19T11:28:51;23.80;83.30
42097;DHT22;27754;45.414;11.084;2022-08-19T11:31:23;24.00;83.40
42097;DHT22;27754;45.414;11.084;2022-08-19T11:33:59;24.20;82.90
42097;DHT22;27754;45.414;11.084;2022-08-19T11:36:30;24.00;83.70
42097;DHT22;27754;45.414;11.084;2022-08-19T11:38:59;24.10;82.60
42097;DHT22;27754;45.414;11.084;2022-08-19T11:41:27;24.00;82.70
42097;DHT22;27754;45.414;11.084;2022-08-19T11:43:54;24.00;83.20
42097;DHT22;27754;45.414;11.084;2022-08-19T11:46:24;24.10;83.10
42097;DHT22;27754;45.414;11.084;2022-08-19T11:48:51;24.20;82.40
42097;DHT22;27754;45.414;11.084;2022-08-19T11:51:21;24.40;80.90
42097;DHT22;27754;45.414;11.084;2022-08-19T11:53:48;24.40;82.10
42097;DHT22;27754;45.414;11.084;2022-08-19T11:56:17;24.40;80.60
42097;DHT22;27754;45.414;11.084;2022-08-19T11:58:45;24.40;80.30
42097;DHT22;27754;45.414;11.084;2022-08-19T12:01:15;24.30;81.30
42097;DHT22;27754;45.414;11.084;2022-08-19T12:03:44;24.40;81.00
42097;DHT22;27754;45.414;11.084;2022-08-19T12:06:15;24.70;81.10
42097;DHT22;27754;45.414;11.084;2022-08-19T12:08:44;24.60;81.30
42097;DHT22;27754;45.414;11.084;2022-08-19T12:11:12;24.60;80.60
42097;DHT22;27754;45.414;11.084;2022-08-19T12:13:40;24.60;81.30
42097;DHT22;27754;45.414;11.084;2022-08-19T12:16:20;24.70;80.40
42097;DHT22;27754;45.414;11.084;2022-08-19T12:18:49;24.70;82.30
42097;DHT22;27754;45.414;11.084;2022-08-19T12:21:21;24.70;81.60
42097;DHT22;27754;45.414;11.084;2022-08-19T12:23:50;24.60;82.00
42097;DHT22;27754;45.414;11.084;2022-08-19T12:26:22;24.70;81.70
42097;DHT22;27754;45.414;11.084;2022-08-19T12:28:48;24.60;82.20
42097;DHT22;27754;45.414;11.084;2022-08-19T12:31:17;24.70;82.20
42097;DHT22;27754;45.414;11.084;2022-08-19T12:33:44;24.70;81.10
42097;DHT22;27754;45.414;11.084;2022-08-19T12:36:13;24.60;81.80
42097;DHT22;27754;45.414;11.084;2022-08-19T12:38:41;24.60;82.00
42097;DHT22;27754;45.414;11.084;2022-08-19T12:41:11;24.50;80.90
42097;DHT22;27754;45.414;11.084;2022-08-19T12:43:38;24.70;81.50
42097;DHT22;27754;45.414;11.084;2022-08-19T12:46:06;24.80;81.60
42097;DHT22;27754;45.414;11.084;2022-08-19T12:48:36;24.70;81.60
42097;DHT22;27754;45.414;11.084;2022-08-19T12:51:08;24.60;80.80
42097;DHT22;27754;45.414;11.084;2022-08-19T12:53:36;24.60;81.70
42097;DHT22;27754;45.414;11.084;2022-08-19T12:56:06;24.70;81.40
42097;DHT22;27754;45.414;11.084;2022-08-19T12:58:37;24.70;80.70
42097;DHT22;27754;45.414;11.084;2022-08-19T13:01:16;24.90;79.90
42097;DHT22;27754;45.414;11.084;2022-08-19T13:03:47;24.80;79.30
42097;DHT22;27754;45.414;11.084;2022-08-19T13:06:17;24.90;78.70
42097;DHT22;27754;45.414;11.084;2022-08-19T13:08:46;25.00;77.10
42097;DHT22;27754;45.414;11.084;2022-08-19T13:11:15;25.10;77.80
42097;DHT22;27754;45.414;11.084;2022-08-19T13:13:45;25.00;78.10
42097;DHT22;27754;45.414;11.084;2022-08-19T13:16:14;25.30;77.30
42097;DHT22;27754;45.414;11.084;2022-08-19T13:18:43;25.10;76.40
42097;DHT22;27754;45.414;11.084;2022-08-19T13:21:11;25.10;77.40
42097;DHT22;27754;45.414;11.084;2022-08-19T13:23:41;25.30;76.60
42097;DHT22;27754;45.414;11.084;2022-08-19T13:26:09;25.30;76.90
42097;DHT22;27754;45.414;11.084;2022-08-19T13:28:37;25.40;75.90
42097;DHT22;27754;45.414;11.084;2022-08-19T13:31:24;25.50;75.80
42097;DHT22;27754;45.414;11.084;2022-08-19T13:34:10;25.40;76.30
42097;DHT22;27754;45.414;11.084;2022-08-19T13:36:38;25.50;76.80
42097;DHT22;27754;45.414;11.084;2022-08-19T13:39:06;25.60;76.60
42097;DHT22;27754;45.414;11.084;2022-08-19T13:41:35;25.60;75.90
42097;DHT22;27754;45.414;11.084;2022-08-19T13:44:03;25.80;75.60
42097;DHT22;27754;45.414;11.084;2022-08-19T13:46:31;26.00;75.00
42097;DHT22;27754;45.414;11.084;2022-08-19T13:48:58;26.20;73.40
42097;DHT22;27754;45.414;11.084;2022-08-19T13:51:25;26.30;73.70
42097;DHT22;27754;45.414;11.084;2022-08-19T13:53:51;26.30;72.90
42097;DHT22;27754;45.414;11.084;2022-08-19T13:56:19;26.20;72.80
42097;DHT22;27754;45.414;11.084;2022-08-19T13:58:52;25.80;73.10
42097;DHT22;27754;45.414;11.084;2022-08-19T14:01:23;25.80;73.70
42097;DHT22;27754;45.414;11.084;2022-08-19T14:03:50;25.80;74.30
42097;DHT22;27754;45.414;11.084;2022-08-19T14:06:18;25.80;74.90
42097;DHT22;27754;45.414;11.084;2022-08-19T14:08:45;25.80;75.20
42097;DHT22;27754;45.414;11.084;2022-08-19T14:11:13;25.90;75.70
42097;DHT22;27754;45.414;11.084;2022-08-19T14:13:40;25.90;75.40
42097;DHT22;27754;45.414;11.084;2022-08-19T14:16:09;25.90;74.00
42097;DHT22;27754;45.414;11.084;2022-08-19T14:18:37;25.90;74.60
42097;DHT22;27754;45.414;11.084;2022-08-19T14:21:04;25.70;74.00
42097;DHT22;27754;45.414;11.084;2022-08-19T14:23:32;25.80;74.00
42097;DHT22;27754;45.414;11.084;2022-08-19T14:26:08;25.80;74.80
42097;DHT22;27754;45.414;11.084;2022-08-19T14:28:35;25.90;74.10
42097;DHT22;27754;45.414;11.084;2022-08-19T14:31:03;26.00;74.50
42097;DHT22;27754;45.414;11.084;2022-08-19T14:33:30;26.20;73.80
42097;DHT22;27754;45.414;11.084;2022-08-19T14:35:56;26.30;73.60
42097;DHT22;27754;45.414;11.084;2022-08-19T14:38:26;26.20;74.50
42097;DHT22;27754;45.414;11.084;2022-08-19T14:41:09;26.00;74.70
42097;DHT22;27754;45.414;11.084;2022-08-19T14:43:36;26.00;74.10
42097;DHT22;27754;45.414;11.084;2022-08-19T14:46:04;26.00;74.20
42097;DHT22;27754;45.414;11.084;2022-08-19T14:48:31;26.00;75.00
42097;DHT22;27754;45.414;11.084;2022-08-19T14:50:58;25.90;74.40
42097;DHT22;27754;45.414;11.084;2022-08-19T14:53:25;25.90;74.60
42097;DHT22;27754;45.414;11.084;2022-08-19T14:55:52;26.00;74.00
42097;DHT22;27754;45.414;11.084;2022-08-19T14:58:19;26.10;74.80
42097;DHT22;27754;45.414;11.084;2022-08-19T15:00:57;26.10;75.00
42097;DHT22;27754;45.414;11.084;2022-08-19T15:03:25;26.10;74.50
42097;DHT22;27754;45.414;11.084;2022-08-19T15:05:52;26.10;73.80
42097;DHT22;27754;45.414;11.084;2022-08-19T15:08:20;26.10;73.00
42097;DHT22;27754;45.414;11.084;2022-08-19T15:10:52;26.10;72.90
42097;DHT22;27754;45.414;11.084;2022-08-19T15:13:19;26.00;73.00
42097;DHT22;27754;45.414;11.084;2022-08-19T15:15:47;26.10;73.10
42097;DHT22;27754;45.414;11.084;2022-08-19T15:18:14;26.20;73.10
42097;DHT22;27754;45.414;11.084;2022-08-19T15:20:42;26.20;72.30
42097;DHT22;27754;45.414;11.084;2022-08-19T15:23:16;26.30;71.30
42097;DHT22;27754;45.414;11.084;2022-08-19T15:25:44;26.30;71.00
42097;DHT22;27754;45.414;11.084;2022-08-19T15:28:11;26.30;70.80
42097;DHT22;27754;45.414;11.084;2022-08-19T15:30:39;26.30;70.00
42097;DHT22;27754;45.414;11.084;2022-08-19T15:33:07;26.50;70.90
42097;DHT22;27754;45.414;11.084;2022-08-19T15:35:34;26.50;71.20
42097;DHT22;27754;45.414;11.084;2022-08-19T15:38:01;26.50;71.20
42097;DHT22;27754;45.414;11.084;2022-08-19T15:40:28;26.60;71.20
42097;DHT22;27754;45.414;11.084;2022-08-19T15:42:56;26.50;70.80
42097;DHT22;27754;45.414;11.084;2022-08-19T15:45:23;26.50;70.70
42097;DHT22;27754;45.414;11.084;2022-08-19T15:47:59;26.40;70.40